Tupelo, Oklahoma
Current Conditions -  °F | °C
As of 7:55 PM on Monday 24 Nov 2014 (Local Time) from KADH Reporting Station
Clear Clear  
Wind Chill: 46°   Ceiling: Unl
Heat Index: 46°   Visibility: 10mi
Dew Point: 25°   Wind: 3mph
Humidity: 43%   Direction: 280°W
Pressure: 30.09"   Gusts: NA
Location:  34.6°N, 96.42°W
Report Text: KADH 250155Z AUTO 28003KT 10SM CLR 08/M04 A3009 RMK AO2
Loading
Personal Weather Stations






























Interactive Weather Map New forecast layout! Learn more

10-Day Weather Forecast

Advertisements
Track Severe Weather on mobile